< < Back
Terminal Aerodrome Forecast


Current Version              Previous Versions:   1  2  3  4  5  6  7  8  9  

Terminal Aerodrome Forecast

767
FTAK31 PAJN 122207 AAB
TAFAHN
TAF AMD
PAHN 122207Z 1222/1318 07010G20KT P6SM -SHRA BKN015 OVC040
     FM122300 10010G20KT P6SM -SHRA SCT015 OVC040
     FM130700 07008KT P6SM -SHRA SCT025 OVC060
     FM131100 08008KT P6SM VCSH OVC050
     FM131500 29006KT P6SM VCSH OVC060
      AMD LTD TO CLD VIS AND WIND=

Latest METAR

569
SAUS70 KWBC 130200
MTRAHN
METAR KAHN 130151Z AUTO 32008KT 10SM CLR 09/M01 A3009 RMK AO2 SLP194
T00941011


USA.gov is the U.S. government's official web portal to all federal, state and local government web resources and services.